sensor_id;sensor_type;location;lat;lon;timestamp;P1;durP1;ratioP1;P2;durP2;ratioP2
44536;SDS011;30245;51.966;6.292;2023-02-22T00:01:14;34.10;;;19.10;;
44536;SDS011;30245;51.966;6.292;2023-02-22T00:03:47;39.93;;;18.80;;
44536;SDS011;30245;51.966;6.292;2023-02-22T00:06:16;42.63;;;21.23;;
44536;SDS011;30245;51.966;6.292;2023-02-22T00:08:43;41.08;;;21.73;;
44536;SDS011;30245;51.966;6.292;2023-02-22T00:11:12;45.45;;;24.27;;
44536;SDS011;30245;51.966;6.292;2023-02-22T00:13:38;46.40;;;24.10;;
44536;SDS011;30245;51.966;6.292;2023-02-22T00:16:08;47.57;;;23.30;;
44536;SDS011;30245;51.966;6.292;2023-02-22T00:21:02;48.40;;;23.53;;
44536;SDS011;30245;51.966;6.292;2023-02-22T00:23:28;44.67;;;23.20;;
44536;SDS011;30245;51.966;6.292;2023-02-22T00:25:56;49.03;;;24.77;;
44536;SDS011;30245;51.966;6.292;2023-02-22T00:28:23;60.83;;;29.07;;
44536;SDS011;30245;51.966;6.292;2023-02-22T00:30:49;57.60;;;26.43;;
44536;SDS011;30245;51.966;6.292;2023-02-22T00:33:15;62.37;;;29.93;;
44536;SDS011;30245;51.966;6.292;2023-02-22T00:35:42;58.40;;;27.97;;
44536;SDS011;30245;51.966;6.292;2023-02-22T00:38:13;58.10;;;28.67;;
44536;SDS011;30245;51.966;6.292;2023-02-22T00:40:40;54.60;;;25.90;;
44536;SDS011;30245;51.966;6.292;2023-02-22T00:43:06;59.80;;;27.73;;
44536;SDS011;30245;51.966;6.292;2023-02-22T00:45:32;57.13;;;25.87;;
44536;SDS011;30245;51.966;6.292;2023-02-22T00:48:00;63.13;;;27.77;;
44536;SDS011;30245;51.966;6.292;2023-02-22T00:50:27;55.90;;;29.40;;
44536;SDS011;30245;51.966;6.292;2023-02-22T00:52:53;60.47;;;29.53;;
44536;SDS011;30245;51.966;6.292;2023-02-22T00:55:21;67.37;;;31.43;;
44536;SDS011;30245;51.966;6.292;2023-02-22T00:57:48;66.00;;;28.88;;
44536;SDS011;30245;51.966;6.292;2023-02-22T01:00:20;66.80;;;31.60;;
44536;SDS011;30245;51.966;6.292;2023-02-22T01:03:07;58.97;;;29.43;;
44536;SDS011;30245;51.966;6.292;2023-02-22T01:05:34;68.65;;;34.65;;
44536;SDS011;30245;51.966;6.292;2023-02-22T01:08:02;63.30;;;32.27;;
44536;SDS011;30245;51.966;6.292;2023-02-22T01:10:30;63.55;;;31.50;;
44536;SDS011;30245;51.966;6.292;2023-02-22T01:12:57;73.93;;;33.93;;
44536;SDS011;30245;51.966;6.292;2023-02-22T01:15:24;66.73;;;31.47;;
44536;SDS011;30245;51.966;6.292;2023-02-22T01:17:53;59.33;;;29.70;;
44536;SDS011;30245;51.966;6.292;2023-02-22T01:20:19;61.90;;;29.93;;
44536;SDS011;30245;51.966;6.292;2023-02-22T01:22:53;69.50;;;30.57;;
44536;SDS011;30245;51.966;6.292;2023-02-22T01:25:22;66.53;;;31.20;;
44536;SDS011;30245;51.966;6.292;2023-02-22T01:27:49;67.83;;;30.23;;
44536;SDS011;30245;51.966;6.292;2023-02-22T01:30:18;67.93;;;34.00;;
44536;SDS011;30245;51.966;6.292;2023-02-22T01:32:45;72.57;;;32.93;;
44536;SDS011;30245;51.966;6.292;2023-02-22T01:35:12;91.03;;;39.57;;
44536;SDS011;30245;51.966;6.292;2023-02-22T01:37:42;78.30;;;37.33;;
44536;SDS011;30245;51.966;6.292;2023-02-22T01:40:09;82.90;;;39.17;;
44536;SDS011;30245;51.966;6.292;2023-02-22T01:42:40;71.67;;;35.73;;
44536;SDS011;30245;51.966;6.292;2023-02-22T01:47:57;76.53;;;34.17;;
44536;SDS011;30245;51.966;6.292;2023-02-22T01:50:28;76.77;;;33.80;;
44536;SDS011;30245;51.966;6.292;2023-02-22T01:52:57;72.03;;;32.67;;
44536;SDS011;30245;51.966;6.292;2023-02-22T01:55:23;76.73;;;33.13;;
44536;SDS011;30245;51.966;6.292;2023-02-22T01:57:49;67.77;;;33.13;;
44536;SDS011;30245;51.966;6.292;2023-02-22T02:00:17;74.07;;;31.97;;
44536;SDS011;30245;51.966;6.292;2023-02-22T02:02:47;72.40;;;35.43;;
44536;SDS011;30245;51.966;6.292;2023-02-22T02:05:16;68.40;;;32.20;;
44536;SDS011;30245;51.966;6.292;2023-02-22T02:07:42;76.57;;;35.37;;
44536;SDS011;30245;51.966;6.292;2023-02-22T02:10:11;76.67;;;33.87;;
44536;SDS011;30245;51.966;6.292;2023-02-22T02:12:38;65.18;;;30.90;;
44536;SDS011;30245;51.966;6.292;2023-02-22T02:17:48;79.67;;;34.97;;
44536;SDS011;30245;51.966;6.292;2023-02-22T02:20:37;64.43;;;30.45;;
44536;SDS011;30245;51.966;6.292;2023-02-22T02:34:22;70.77;;;31.90;;
44536;SDS011;30245;51.966;6.292;2023-02-22T02:42:26;77.37;;;33.23;;
44536;SDS011;30245;51.966;6.292;2023-02-22T02:45:07;71.03;;;33.03;;
44536;SDS011;30245;51.966;6.292;2023-02-22T02:50:09;72.07;;;28.63;;
44536;SDS011;30245;51.966;6.292;2023-02-22T02:52:51;73.17;;;31.63;;
44536;SDS011;30245;51.966;6.292;2023-02-22T02:55:20;75.47;;;33.10;;
44536;SDS011;30245;51.966;6.292;2023-02-22T02:57:46;87.70;;;35.20;;
44536;SDS011;30245;51.966;6.292;2023-02-22T03:00:13;85.63;;;35.40;;
44536;SDS011;30245;51.966;6.292;2023-02-22T03:07:55;81.97;;;34.50;;
44536;SDS011;30245;51.966;6.292;2023-02-22T03:13:16;77.67;;;32.70;;
44536;SDS011;30245;51.966;6.292;2023-02-22T03:26:39;84.50;;;34.30;;
44536;SDS011;30245;51.966;6.292;2023-02-22T03:29:08;84.37;;;36.67;;
44536;SDS011;30245;51.966;6.292;2023-02-22T03:31:39;80.57;;;37.17;;
44536;SDS011;30245;51.966;6.292;2023-02-22T03:34:10;94.00;;;35.90;;
44536;SDS011;30245;51.966;6.292;2023-02-22T03:36:49;83.97;;;39.17;;
44536;SDS011;30245;51.966;6.292;2023-02-22T03:39:20;95.73;;;43.53;;
44536;SDS011;30245;51.966;6.292;2023-02-22T03:41:54;94.47;;;39.13;;
44536;SDS011;30245;51.966;6.292;2023-02-22T03:44:50;99.90;;;40.33;;
44536;SDS011;30245;51.966;6.292;2023-02-22T03:47:22;84.75;;;37.55;;
44536;SDS011;30245;51.966;6.292;2023-02-22T03:49:56;92.70;;;37.83;;
44536;SDS011;30245;51.966;6.292;2023-02-22T03:52:30;86.53;;;38.93;;
44536;SDS011;30245;51.966;6.292;2023-02-22T03:55:00;95.37;;;40.50;;
44536;SDS011;30245;51.966;6.292;2023-02-22T03:57:48;91.50;;;39.90;;
44536;SDS011;30245;51.966;6.292;2023-02-22T04:00:15;81.23;;;37.10;;
44536;SDS011;30245;51.966;6.292;2023-02-22T04:02:44;101.37;;;39.63;;
44536;SDS011;30245;51.966;6.292;2023-02-22T04:05:10;99.60;;;41.63;;
44536;SDS011;30245;51.966;6.292;2023-02-22T04:07:38;104.60;;;43.92;;
44536;SDS011;30245;51.966;6.292;2023-02-22T04:10:04;89.90;;;39.27;;
44536;SDS011;30245;51.966;6.292;2023-02-22T04:12:32;100.70;;;43.58;;
44536;SDS011;30245;51.966;6.292;2023-02-22T04:14:58;95.13;;;39.63;;
44536;SDS011;30245;51.966;6.292;2023-02-22T04:17:24;106.77;;;44.00;;
44536;SDS011;30245;51.966;6.292;2023-02-22T04:19:50;102.83;;;43.37;;
44536;SDS011;30245;51.966;6.292;2023-02-22T04:22:15;109.23;;;44.97;;
44536;SDS011;30245;51.966;6.292;2023-02-22T04:24:42;103.63;;;44.07;;
44536;SDS011;30245;51.966;6.292;2023-02-22T04:27:08;105.70;;;44.53;;
44536;SDS011;30245;51.966;6.292;2023-02-22T04:29:34;108.07;;;42.57;;
44536;SDS011;30245;51.966;6.292;2023-02-22T04:31:59;106.63;;;45.10;;
44536;SDS011;30245;51.966;6.292;2023-02-22T04:34:25;100.90;;;43.07;;
44536;SDS011;30245;51.966;6.292;2023-02-22T04:36:50;99.17;;;42.33;;
44536;SDS011;30245;51.966;6.292;2023-02-22T04:39:16;107.40;;;44.93;;
44536;SDS011;30245;51.966;6.292;2023-02-22T04:41:42;109.90;;;48.60;;
44536;SDS011;30245;51.966;6.292;2023-02-22T04:44:07;112.97;;;50.97;;
44536;SDS011;30245;51.966;6.292;2023-02-22T04:46:33;108.83;;;45.90;;
44536;SDS011;30245;51.966;6.292;2023-02-22T04:48:58;101.97;;;45.43;;
44536;SDS011;30245;51.966;6.292;2023-02-22T04:51:24;117.27;;;47.47;;
44536;SDS011;30245;51.966;6.292;2023-02-22T04:53:50;111.80;;;49.07;;
44536;SDS011;30245;51.966;6.292;2023-02-22T04:56:16;110.50;;;44.57;;
44536;SDS011;30245;51.966;6.292;2023-02-22T04:58:42;110.80;;;49.30;;
44536;SDS011;30245;51.966;6.292;2023-02-22T05:01:08;108.63;;;46.87;;
44536;SDS011;30245;51.966;6.292;2023-02-22T05:03:36;105.77;;;45.87;;
44536;SDS011;30245;51.966;6.292;2023-02-22T05:06:01;105.47;;;43.28;;
44536;SDS011;30245;51.966;6.292;2023-02-22T05:08:27;106.87;;;41.73;;
44536;SDS011;30245;51.966;6.292;2023-02-22T05:10:53;103.20;;;41.50;;
44536;SDS011;30245;51.966;6.292;2023-02-22T05:13:19;99.40;;;41.33;;
44536;SDS011;30245;51.966;6.292;2023-02-22T05:15:45;93.87;;;39.17;;
44536;SDS011;30245;51.966;6.292;2023-02-22T05:18:11;98.03;;;42.03;;
44536;SDS011;30245;51.966;6.292;2023-02-22T05:20:37;108.50;;;43.60;;
44536;SDS011;30245;51.966;6.292;2023-02-22T05:23:03;94.27;;;39.30;;
44536;SDS011;30245;51.966;6.292;2023-02-22T05:25:29;86.80;;;35.47;;
44536;SDS011;30245;51.966;6.292;2023-02-22T05:28:00;94.27;;;39.77;;
44536;SDS011;30245;51.966;6.292;2023-02-22T05:30:29;97.43;;;39.93;;
44536;SDS011;30245;51.966;6.292;2023-02-22T05:32:57;110.07;;;42.97;;
44536;SDS011;30245;51.966;6.292;2023-02-22T05:35:23;92.57;;;36.80;;
44536;SDS011;30245;51.966;6.292;2023-02-22T05:37:50;101.27;;;40.73;;
44536;SDS011;30245;51.966;6.292;2023-02-22T05:40:17;93.50;;;37.73;;
44536;SDS011;30245;51.966;6.292;2023-02-22T05:42:44;93.78;;;35.20;;
44536;SDS011;30245;51.966;6.292;2023-02-22T05:45:13;83.07;;;32.73;;
44536;SDS011;30245;51.966;6.292;2023-02-22T05:47:40;84.07;;;32.67;;
44536;SDS011;30245;51.966;6.292;2023-02-22T05:50:06;80.20;;;34.47;;
44536;SDS011;30245;51.966;6.292;2023-02-22T05:52:32;84.83;;;33.53;;
44536;SDS011;30245;51.966;6.292;2023-02-22T05:54:58;86.70;;;34.90;;
44536;SDS011;30245;51.966;6.292;2023-02-22T05:57:24;73.77;;;31.77;;
44536;SDS011;30245;51.966;6.292;2023-02-22T05:59:49;81.63;;;32.83;;
44536;SDS011;30245;51.966;6.292;2023-02-22T06:02:15;86.87;;;33.17;;
44536;SDS011;30245;51.966;6.292;2023-02-22T06:04:44;87.80;;;31.80;;
44536;SDS011;30245;51.966;6.292;2023-02-22T06:07:10;97.90;;;35.60;;
44536;SDS011;30245;51.966;6.292;2023-02-22T06:09:36;90.53;;;36.27;;
44536;SDS011;30245;51.966;6.292;2023-02-22T06:12:02;93.63;;;32.60;;
44536;SDS011;30245;51.966;6.292;2023-02-22T06:14:28;93.23;;;34.40;;
44536;SDS011;30245;51.966;6.292;2023-02-22T06:16:54;89.77;;;35.13;;
44536;SDS011;30245;51.966;6.292;2023-02-22T06:19:20;94.40;;;33.37;;
44536;SDS011;30245;51.966;6.292;2023-02-22T06:21:53;99.90;;;37.23;;
44536;SDS011;30245;51.966;6.292;2023-02-22T06:24:20;101.97;;;36.60;;
44536;SDS011;30245;51.966;6.292;2023-02-22T06:26:50;101.57;;;39.83;;
44536;SDS011;30245;51.966;6.292;2023-02-22T06:29:23;117.83;;;41.17;;
44536;SDS011;30245;51.966;6.292;2023-02-22T06:31:49;107.47;;;40.60;;
44536;SDS011;30245;51.966;6.292;2023-02-22T06:34:15;104.93;;;39.73;;
44536;SDS011;30245;51.966;6.292;2023-02-22T06:36:41;98.27;;;37.13;;
44536;SDS011;30245;51.966;6.292;2023-02-22T06:39:07;90.83;;;33.87;;
44536;SDS011;30245;51.966;6.292;2023-02-22T06:44:01;74.10;;;30.27;;
44536;SDS011;30245;51.966;6.292;2023-02-22T06:46:27;69.67;;;28.63;;
44536;SDS011;30245;51.966;6.292;2023-02-22T06:48:53;77.17;;;28.63;;
44536;SDS011;30245;51.966;6.292;2023-02-22T06:51:18;73.73;;;27.13;;
44536;SDS011;30245;51.966;6.292;2023-02-22T06:53:46;77.43;;;29.77;;
44536;SDS011;30245;51.966;6.292;2023-02-22T06:56:11;89.40;;;29.70;;
44536;SDS011;30245;51.966;6.292;2023-02-22T06:58:37;75.83;;;28.13;;
44536;SDS011;30245;51.966;6.292;2023-02-22T07:01:02;82.00;;;31.20;;
44536;SDS011;30245;51.966;6.292;2023-02-22T07:03:28;97.23;;;34.60;;
44536;SDS011;30245;51.966;6.292;2023-02-22T07:05:54;80.10;;;30.40;;
44536;SDS011;30245;51.966;6.292;2023-02-22T07:08:19;78.57;;;29.37;;
44536;SDS011;30245;51.966;6.292;2023-02-22T07:10:45;82.87;;;28.70;;
44536;SDS011;30245;51.966;6.292;2023-02-22T07:13:10;75.60;;;29.77;;
44536;SDS011;30245;51.966;6.292;2023-02-22T07:15:36;77.97;;;32.77;;
44536;SDS011;30245;51.966;6.292;2023-02-22T07:18:02;70.60;;;26.33;;
44536;SDS011;30245;51.966;6.292;2023-02-22T07:20:28;75.80;;;29.70;;
44536;SDS011;30245;51.966;6.292;2023-02-22T07:22:55;74.73;;;29.07;;
44536;SDS011;30245;51.966;6.292;2023-02-22T07:25:21;76.50;;;29.03;;
44536;SDS011;30245;51.966;6.292;2023-02-22T07:27:47;78.73;;;29.70;;
44536;SDS011;30245;51.966;6.292;2023-02-22T07:30:17;86.23;;;29.80;;
44536;SDS011;30245;51.966;6.292;2023-02-22T07:32:43;77.53;;;30.10;;
44536;SDS011;30245;51.966;6.292;2023-02-22T07:35:14;84.07;;;30.87;;
44536;SDS011;30245;51.966;6.292;2023-02-22T07:37:40;78.50;;;29.13;;
44536;SDS011;30245;51.966;6.292;2023-02-22T07:40:06;79.67;;;32.50;;
44536;SDS011;30245;51.966;6.292;2023-02-22T07:42:32;83.80;;;30.70;;
44536;SDS011;30245;51.966;6.292;2023-02-22T07:44:57;76.57;;;30.97;;
44536;SDS011;30245;51.966;6.292;2023-02-22T07:47:23;84.57;;;28.33;;
44536;SDS011;30245;51.966;6.292;2023-02-22T07:49:48;72.80;;;30.47;;
44536;SDS011;30245;51.966;6.292;2023-02-22T07:52:14;70.27;;;28.90;;
44536;SDS011;30245;51.966;6.292;2023-02-22T07:54:41;79.17;;;30.47;;
44536;SDS011;30245;51.966;6.292;2023-02-22T07:57:10;90.38;;;30.00;;
44536;SDS011;30245;51.966;6.292;2023-02-22T07:59:37;83.50;;;29.17;;
44536;SDS011;30245;51.966;6.292;2023-02-22T08:02:03;79.13;;;29.67;;
44536;SDS011;30245;51.966;6.292;2023-02-22T08:04:29;88.33;;;31.33;;
44536;SDS011;30245;51.966;6.292;2023-02-22T08:06:54;95.63;;;32.50;;
44536;SDS011;30245;51.966;6.292;2023-02-22T08:09:20;86.77;;;29.97;;
44536;SDS011;30245;51.966;6.292;2023-02-22T08:11:47;85.40;;;32.17;;
44536;SDS011;30245;51.966;6.292;2023-02-22T08:14:14;84.67;;;29.77;;
44536;SDS011;30245;51.966;6.292;2023-02-22T08:16:41;87.55;;;34.55;;
44536;SDS011;30245;51.966;6.292;2023-02-22T08:19:06;92.93;;;33.60;;
44536;SDS011;30245;51.966;6.292;2023-02-22T08:21:32;78.57;;;29.90;;
44536;SDS011;30245;51.966;6.292;2023-02-22T08:23:57;88.20;;;30.80;;
44536;SDS011;30245;51.966;6.292;2023-02-22T08:26:23;74.07;;;30.10;;
44536;SDS011;30245;51.966;6.292;2023-02-22T08:28:49;70.07;;;26.57;;
44536;SDS011;30245;51.966;6.292;2023-02-22T08:31:15;70.60;;;26.37;;
44536;SDS011;30245;51.966;6.292;2023-02-22T08:33:40;71.17;;;26.20;;
44536;SDS011;30245;51.966;6.292;2023-02-22T08:36:06;67.23;;;25.27;;
44536;SDS011;30245;51.966;6.292;2023-02-22T08:38:32;70.20;;;28.47;;
44536;SDS011;30245;51.966;6.292;2023-02-22T08:40:58;64.90;;;25.63;;
44536;SDS011;30245;51.966;6.292;2023-02-22T08:43:24;63.47;;;23.60;;
44536;SDS011;30245;51.966;6.292;2023-02-22T08:45:49;62.93;;;23.87;;
44536;SDS011;30245;51.966;6.292;2023-02-22T08:48:16;76.33;;;26.77;;
44536;SDS011;30245;51.966;6.292;2023-02-22T08:50:42;70.83;;;24.60;;
44536;SDS011;30245;51.966;6.292;2023-02-22T08:53:08;66.77;;;25.30;;
44536;SDS011;30245;51.966;6.292;2023-02-22T08:55:36;55.40;;;22.67;;
44536;SDS011;30245;51.966;6.292;2023-02-22T08:58:03;59.67;;;23.47;;
44536;SDS011;30245;51.966;6.292;2023-02-22T09:00:33;51.60;;;21.67;;
44536;SDS011;30245;51.966;6.292;2023-02-22T09:02:59;54.53;;;21.00;;
44536;SDS011;30245;51.966;6.292;2023-02-22T09:05:26;51.83;;;22.60;;
44536;SDS011;30245;51.966;6.292;2023-02-22T09:07:52;55.30;;;20.47;;
44536;SDS011;30245;51.966;6.292;2023-02-22T09:10:21;51.77;;;20.27;;
44536;SDS011;30245;51.966;6.292;2023-02-22T09:12:49;56.23;;;23.37;;
44536;SDS011;30245;51.966;6.292;2023-02-22T09:15:16;54.33;;;20.57;;
44536;SDS011;30245;51.966;6.292;2023-02-22T09:17:42;53.07;;;21.80;;
44536;SDS011;30245;51.966;6.292;2023-02-22T09:20:08;44.70;;;18.97;;
44536;SDS011;30245;51.966;6.292;2023-02-22T09:22:36;48.75;;;21.15;;
44536;SDS011;30245;51.966;6.292;2023-02-22T09:25:02;51.87;;;19.73;;
44536;SDS011;30245;51.966;6.292;2023-02-22T09:27:28;50.80;;;20.07;;
44536;SDS011;30245;51.966;6.292;2023-02-22T09:29:54;55.40;;;20.90;;
44536;SDS011;30245;51.966;6.292;2023-02-22T09:32:20;60.73;;;23.03;;
44536;SDS011;30245;51.966;6.292;2023-02-22T09:34:47;44.17;;;19.20;;
44536;SDS011;30245;51.966;6.292;2023-02-22T09:37:13;46.40;;;20.70;;
44536;SDS011;30245;51.966;6.292;2023-02-22T09:39:38;44.83;;;19.67;;
44536;SDS011;30245;51.966;6.292;2023-02-22T09:44:45;43.20;;;19.13;;
44536;SDS011;30245;51.966;6.292;2023-02-22T09:47:31;43.83;;;19.43;;
44536;SDS011;30245;51.966;6.292;2023-02-22T09:50:16;40.80;;;19.20;;
44536;SDS011;30245;51.966;6.292;2023-02-22T09:52:54;43.60;;;17.93;;
44536;SDS011;30245;51.966;6.292;2023-02-22T09:55:32;39.50;;;18.47;;
44536;SDS011;30245;51.966;6.292;2023-02-22T09:58:12;41.10;;;18.43;;
44536;SDS011;30245;51.966;6.292;2023-02-22T10:00:47;42.07;;;19.83;;
44536;SDS011;30245;51.966;6.292;2023-02-22T10:03:33;46.63;;;20.13;;
44536;SDS011;30245;51.966;6.292;2023-02-22T10:06:12;48.13;;;22.42;;
44536;SDS011;30245;51.966;6.292;2023-02-22T10:08:40;47.37;;;20.20;;
44536;SDS011;30245;51.966;6.292;2023-02-22T10:19:20;46.53;;;22.47;;
44536;SDS011;30245;51.966;6.292;2023-02-22T10:21:59;45.23;;;22.07;;
44536;SDS011;30245;51.966;6.292;2023-02-22T10:25:01;45.23;;;23.00;;
44536;SDS011;30245;51.966;6.292;2023-02-22T10:27:41;45.90;;;22.33;;
44536;SDS011;30245;51.966;6.292;2023-02-22T10:30:30;44.40;;;24.20;;
44536;SDS011;30245;51.966;6.292;2023-02-22T10:35:43;44.90;;;22.67;;
44536;SDS011;30245;51.966;6.292;2023-02-22T10:38:25;44.37;;;24.10;;
44536;SDS011;30245;51.966;6.292;2023-02-22T10:43:38;41.20;;;22.33;;
44536;SDS011;30245;51.966;6.292;2023-02-22T10:46:05;42.50;;;24.03;;
44536;SDS011;30245;51.966;6.292;2023-02-22T10:48:34;46.58;;;24.45;;
44536;SDS011;30245;51.966;6.292;2023-02-22T10:51:04;40.93;;;23.30;;
44536;SDS011;30245;51.966;6.292;2023-02-22T10:53:32;43.73;;;25.47;;
44536;SDS011;30245;51.966;6.292;2023-02-22T10:58:52;41.13;;;24.17;;
44536;SDS011;30245;51.966;6.292;2023-02-22T11:04:14;40.57;;;23.93;;
44536;SDS011;30245;51.966;6.292;2023-02-22T11:07:04;40.58;;;24.58;;
44536;SDS011;30245;51.966;6.292;2023-02-22T11:09:49;39.63;;;22.33;;
44536;SDS011;30245;51.966;6.292;2023-02-22T11:12:24;37.35;;;21.10;;
44536;SDS011;30245;51.966;6.292;2023-02-22T11:14:52;44.53;;;21.83;;
44536;SDS011;30245;51.966;6.292;2023-02-22T11:17:23;34.63;;;21.55;;
44536;SDS011;30245;51.966;6.292;2023-02-22T11:19:54;37.28;;;23.70;;
44536;SDS011;30245;51.966;6.292;2023-02-22T11:22:24;40.75;;;24.80;;
44536;SDS011;30245;51.966;6.292;2023-02-22T11:24:55;41.03;;;23.55;;
44536;SDS011;30245;51.966;6.292;2023-02-22T11:27:38;35.15;;;22.83;;
44536;SDS011;30245;51.966;6.292;2023-02-22T11:32:41;35.03;;;21.23;;
44536;SDS011;30245;51.966;6.292;2023-02-22T11:35:17;35.90;;;22.25;;
44536;SDS011;30245;51.966;6.292;2023-02-22T11:37:50;36.10;;;23.48;;
44536;SDS011;30245;51.966;6.292;2023-02-22T11:40:17;43.67;;;23.98;;
44536;SDS011;30245;51.966;6.292;2023-02-22T11:42:46;39.33;;;21.95;;
44536;SDS011;30245;51.966;6.292;2023-02-22T11:45:14;31.67;;;20.85;;
44536;SDS011;30245;51.966;6.292;2023-02-22T11:47:50;39.72;;;23.83;;
44536;SDS011;30245;51.966;6.292;2023-02-22T11:50:21;40.95;;;23.00;;
44536;SDS011;30245;51.966;6.292;2023-02-22T12:08:58;39.08;;;23.65;;
44536;SDS011;30245;51.966;6.292;2023-02-22T12:11:38;36.65;;;21.23;;
44536;SDS011;30245;51.966;6.292;2023-02-22T12:22:19;32.15;;;19.63;;
44536;SDS011;30245;51.966;6.292;2023-02-22T12:27:42;31.90;;;20.42;;
44536;SDS011;30245;51.966;6.292;2023-02-22T12:30:29;32.22;;;19.17;;
44536;SDS011;30245;51.966;6.292;2023-02-22T12:33:04;36.28;;;20.95;;
44536;SDS011;30245;51.966;6.292;2023-02-22T12:35:39;34.22;;;19.42;;
44536;SDS011;30245;51.966;6.292;2023-02-22T12:41:07;34.25;;;20.48;;
44536;SDS011;30245;51.966;6.292;2023-02-22T12:43:48;35.47;;;20.88;;
44536;SDS011;30245;51.966;6.292;2023-02-22T12:46:20;30.45;;;18.88;;
44536;SDS011;30245;51.966;6.292;2023-02-22T12:48:52;29.17;;;19.05;;
44536;SDS011;30245;51.966;6.292;2023-02-22T12:54:20;34.67;;;19.02;;
44536;SDS011;30245;51.966;6.292;2023-02-22T12:57:02;27.55;;;17.90;;
44536;SDS011;30245;51.966;6.292;2023-02-22T13:02:14;24.73;;;16.25;;
44536;SDS011;30245;51.966;6.292;2023-02-22T13:04:45;27.58;;;16.48;;
44536;SDS011;30245;51.966;6.292;2023-02-22T13:07:15;23.65;;;15.32;;
44536;SDS011;30245;51.966;6.292;2023-02-22T13:13:08;21.92;;;14.02;;
44536;SDS011;30245;51.966;6.292;2023-02-22T13:15:44;20.88;;;14.05;;
44536;SDS011;30245;51.966;6.292;2023-02-22T13:29:08;19.85;;;13.15;;
44536;SDS011;30245;51.966;6.292;2023-02-22T13:43:01;16.90;;;10.80;;
44536;SDS011;30245;51.966;6.292;2023-02-22T13:53:51;17.02;;;11.30;;
44536;SDS011;30245;51.966;6.292;2023-02-22T13:56:23;18.15;;;10.70;;
44536;SDS011;30245;51.966;6.292;2023-02-22T13:58:51;14.35;;;10.93;;
44536;SDS011;30245;51.966;6.292;2023-02-22T14:06:55;14.80;;;8.93;;
44536;SDS011;30245;51.966;6.292;2023-02-22T14:17:45;20.85;;;10.35;;
44536;SDS011;30245;51.966;6.292;2023-02-22T14:22:43;16.27;;;10.35;;
44536;SDS011;30245;51.966;6.292;2023-02-22T14:28:07;13.38;;;9.25;;
44536;SDS011;30245;51.966;6.292;2023-02-22T14:31:03;15.38;;;9.95;;
44536;SDS011;30245;51.966;6.292;2023-02-22T14:41:39;12.63;;;9.13;;
44536;SDS011;30245;51.966;6.292;2023-02-22T14:44:11;10.65;;;7.95;;
44536;SDS011;30245;51.966;6.292;2023-02-22T14:46:40;12.38;;;7.45;;
44536;SDS011;30245;51.966;6.292;2023-02-22T14:49:10;23.85;;;9.13;;
44536;SDS011;30245;51.966;6.292;2023-02-22T14:51:43;12.38;;;8.55;;
44536;SDS011;30245;51.966;6.292;2023-02-22T14:57:11;12.77;;;7.97;;
44536;SDS011;30245;51.966;6.292;2023-02-22T15:00:03;11.48;;;7.85;;
44536;SDS011;30245;51.966;6.292;2023-02-22T15:02:43;14.95;;;8.52;;
44536;SDS011;30245;51.966;6.292;2023-02-22T15:05:11;10.55;;;7.93;;
44536;SDS011;30245;51.966;6.292;2023-02-22T15:07:39;13.35;;;8.85;;
44536;SDS011;30245;51.966;6.292;2023-02-22T15:10:23;13.82;;;9.05;;
44536;SDS011;30245;51.966;6.292;2023-02-22T15:13:04;12.05;;;8.60;;
44536;SDS011;30245;51.966;6.292;2023-02-22T15:15:37;12.18;;;8.23;;
44536;SDS011;30245;51.966;6.292;2023-02-22T15:18:11;14.02;;;8.02;;
44536;SDS011;30245;51.966;6.292;2023-02-22T15:21:05;14.25;;;9.85;;
44536;SDS011;30245;51.966;6.292;2023-02-22T15:23:40;13.93;;;9.68;;
44536;SDS011;30245;51.966;6.292;2023-02-22T15:26:18;13.65;;;9.38;;
44536;SDS011;30245;51.966;6.292;2023-02-22T15:28:57;12.77;;;8.98;;
44536;SDS011;30245;51.966;6.292;2023-02-22T15:31:25;17.77;;;9.75;;
44536;SDS011;30245;51.966;6.292;2023-02-22T15:33:55;14.10;;;8.82;;
44536;SDS011;30245;51.966;6.292;2023-02-22T15:36:26;15.95;;;8.88;;
44536;SDS011;30245;51.966;6.292;2023-02-22T15:38:55;13.38;;;9.55;;
44536;SDS011;30245;51.966;6.292;2023-02-22T15:41:23;16.77;;;10.82;;
44536;SDS011;30245;51.966;6.292;2023-02-22T15:44:01;14.38;;;10.75;;
44536;SDS011;30245;51.966;6.292;2023-02-22T15:46:36;18.42;;;9.77;;
44536;SDS011;30245;51.966;6.292;2023-02-22T15:54:50;13.73;;;9.57;;
44536;SDS011;30245;51.966;6.292;2023-02-22T15:57:17;12.52;;;9.43;;
44536;SDS011;30245;51.966;6.292;2023-02-22T15:59:47;17.63;;;10.65;;
44536;SDS011;30245;51.966;6.292;2023-02-22T16:02:59;12.43;;;8.48;;
44536;SDS011;30245;51.966;6.292;2023-02-22T16:07:37;15.00;;;9.43;;
44536;SDS011;30245;51.966;6.292;2023-02-22T16:10:16;14.70;;;9.57;;
44536;SDS011;30245;51.966;6.292;2023-02-22T16:12:49;16.92;;;10.45;;
44536;SDS011;30245;51.966;6.292;2023-02-22T16:15:30;18.55;;;10.18;;
44536;SDS011;30245;51.966;6.292;2023-02-22T16:17:56;13.73;;;8.77;;
44536;SDS011;30245;51.966;6.292;2023-02-22T16:22:50;15.00;;;9.93;;
44536;SDS011;30245;51.966;6.292;2023-02-22T16:27:46;15.65;;;9.23;;
44536;SDS011;30245;51.966;6.292;2023-02-22T16:30:26;14.85;;;10.45;;
44536;SDS011;30245;51.966;6.292;2023-02-22T16:32:57;12.95;;;9.15;;
44536;SDS011;30245;51.966;6.292;2023-02-22T16:35:24;13.85;;;10.15;;
44536;SDS011;30245;51.966;6.292;2023-02-22T16:37:59;13.30;;;9.50;;
44536;SDS011;30245;51.966;6.292;2023-02-22T16:40:27;12.32;;;9.20;;
44536;SDS011;30245;51.966;6.292;2023-02-22T16:43:11;13.60;;;9.70;;
44536;SDS011;30245;51.966;6.292;2023-02-22T16:45:39;13.70;;;9.95;;
44536;SDS011;30245;51.966;6.292;2023-02-22T16:48:16;16.20;;;10.10;;
44536;SDS011;30245;51.966;6.292;2023-02-22T16:50:47;15.80;;;11.68;;
44536;SDS011;30245;51.966;6.292;2023-02-22T16:53:14;14.90;;;10.55;;
44536;SDS011;30245;51.966;6.292;2023-02-22T16:55:43;13.88;;;10.60;;
44536;SDS011;30245;51.966;6.292;2023-02-22T16:58:11;16.33;;;11.60;;
44536;SDS011;30245;51.966;6.292;2023-02-22T17:00:38;16.83;;;12.23;;
44536;SDS011;30245;51.966;6.292;2023-02-22T17:03:06;15.67;;;10.77;;
44536;SDS011;30245;51.966;6.292;2023-02-22T17:05:38;15.15;;;11.13;;
44536;SDS011;30245;51.966;6.292;2023-02-22T17:08:04;16.07;;;11.87;;
44536;SDS011;30245;51.966;6.292;2023-02-22T17:10:30;20.73;;;13.60;;
44536;SDS011;30245;51.966;6.292;2023-02-22T17:12:55;17.67;;;13.37;;
44536;SDS011;30245;51.966;6.292;2023-02-22T17:15:26;17.63;;;13.07;;
44536;SDS011;30245;51.966;6.292;2023-02-22T17:17:54;15.37;;;11.27;;
44536;SDS011;30245;51.966;6.292;2023-02-22T17:20:20;17.50;;;12.03;;
44536;SDS011;30245;51.966;6.292;2023-02-22T17:22:56;18.00;;;13.03;;
44536;SDS011;30245;51.966;6.292;2023-02-22T17:25:25;17.23;;;12.05;;
44536;SDS011;30245;51.966;6.292;2023-02-22T17:27:54;17.83;;;13.53;;
44536;SDS011;30245;51.966;6.292;2023-02-22T17:30:20;15.97;;;11.60;;
44536;SDS011;30245;51.966;6.292;2023-02-22T17:32:47;14.93;;;11.50;;
44536;SDS011;30245;51.966;6.292;2023-02-22T17:35:15;15.17;;;12.13;;
44536;SDS011;30245;51.966;6.292;2023-02-22T17:37:41;16.20;;;11.57;;
44536;SDS011;30245;51.966;6.292;2023-02-22T17:40:09;13.73;;;10.65;;
44536;SDS011;30245;51.966;6.292;2023-02-22T17:42:38;16.17;;;12.43;;